Time;durP1;ratioP1;P1;durP2;ratioP2;P2;SDS_P1;SDS_P2;PMS_P1;PMS_P2;Temp;Humidity;BMP_temperature;BMP_pressure;BME280_temperature;BME280_humidity;BME280_pressure;Samples;Min_cycle;Max_cycle;Signal;HPM_P1;HPM_P2
2021/04/14 00:02:23;;;;;;;;;;;;;;;;;;6159345;23;1296;-71
2021/04/14 00:04:49;;;;;;;;;;;;;;;;;;6160641;23;1025;-72
2021/04/14 00:07:15;;;;;;;;;;;;;;;;;;6159026;23;790;-71
2021/04/14 00:09:40;;;;;;;;;;;;;;;;;;6159303;23;850;-69
2021/04/14 00:12:06;;;;;;;;;;;;;;;;;;6133422;23;1176;-70
2021/04/14 00:14:32;;;;;;;;;;;;;;;;;;6133878;23;1909;-69
2021/04/14 00:16:58;;;;;;;;;;;;;;;;;;6161139;23;834;-71
2021/04/14 00:19:23;;;;;;;;;;;;;;;;;;6161135;23;1085;-72
2021/04/14 00:21:50;;;;;;;;;;;;;;;;;;6160877;23;1186;-71
2021/04/14 00:24:16;;;;;;;;;;;;;;;;;;6135488;23;810;-71
2021/04/14 00:26:43;;;;;;;;;;;;;;;;;;6162298;23;795;-69
2021/04/14 00:29:08;;;;;;;;;;;;;;;;;;6135636;23;1342;-68
2021/04/14 00:31:37;;;;;;;;;;;;;;;;;;6160366;23;1056;-72
2021/04/14 00:34:12;;;;;;;;;;;;;;;;;;6162665;23;1873;-69
2021/04/14 00:36:38;;;;;;;;;;;;;;;;;;6135934;23;1262;-71
2021/04/14 00:39:07;;;;;;;;;;;;;;;;;;6134644;23;1248;-71
2021/04/14 00:41:33;;;;;;;;;;;;;;;;;;6161549;23;1400;-71
2021/04/14 00:43:58;;;;;;;;;;;;;;;;;;6161837;23;1083;-71
2021/04/14 00:46:24;;;;;;;;;;;;;;;;;;6135505;23;1239;-71
2021/04/14 00:48:50;;;;;;;;;;;;;;;;;;6135902;23;1160;-71
2021/04/14 00:51:17;;;;;;;;;;;;;;;;;;6159257;23;1240;-71
2021/04/14 00:53:43;;;;;;;;;;;;;;;;;;6135816;23;1917;-69
2021/04/14 00:56:08;;;;;;;;;;;;;;;;;;6162257;23;814;-72
2021/04/14 00:58:35;;;;;;;;;;;;;;;;;;6133654;23;1151;-71
2021/04/14 01:01:00;;;;;;;;;;;;;;;;;;6135633;23;1259;-72
2021/04/14 01:03:34;;;;;;;;;;;;;;;;;;6161983;23;811;-71
2021/04/14 01:06:02;;;;;;;;;;;;;;;;;;6158982;23;924;-70
2021/04/14 01:08:28;;;;;;;;;;;;;;;;;;6161386;23;1386;-72
2021/04/14 01:10:53;;;;;;;;;;;;;;;;;;6135147;23;1204;-72
2021/04/14 01:13:19;;;;;;;;;;;;;;;;;;6135091;23;1235;-68
2021/04/14 01:15:47;;;;;;;;;;;;;;;;;;6161556;23;1873;-69
2021/04/14 01:18:14;;;;;;;;;;;;;;;;;;6160894;23;762;-69
2021/04/14 01:20:39;;;;;;;;;;;;;;;;;;6134628;23;1223;-69
2021/04/14 01:23:06;;;;;;;;;;;;;;;;;;6162323;23;992;-70
2021/04/14 01:25:36;;;;;;;;;;;;;;;;;;6134273;23;1300;-71
2021/04/14 01:28:07;;;;;;;;;;;;;;;;;;6160744;23;926;-69
2021/04/14 01:30:32;;;;;;;;;;;;;;;;;;6136225;23;1207;-69
2021/04/14 01:32:58;;;;;;;;;;;;;;;;;;6160438;23;775;-70
2021/04/14 01:35:24;;;;;;;;;;;;;;;;;;6159889;23;1919;-71
2021/04/14 01:37:50;;;;;;;;;;;;;;;;;;6135701;23;1189;-68
2021/04/14 01:40:17;;;;;;;;;;;;;;;;;;6160391;23;901;-69
2021/04/14 01:42:42;;;;;;;;;;;;;;;;;;6136869;23;1250;-70
2021/04/14 01:45:09;;;;;;;;;;;;;;;;;;6134675;23;1259;-72
2021/04/14 01:47:34;;;;;;;;;;;;;;;;;;6159430;23;969;-70
2021/04/14 01:50:00;;;;;;;;;;;;;;;;;;6135786;23;1321;-72
2021/04/14 01:52:25;;;;;;;;;;;;;;;;;;6159899;23;823;-70
2021/04/14 01:54:51;;;;;;;;;;;;;;;;;;6160485;23;1948;-68
2021/04/14 01:57:16;;;;;;;;;;;;;;;;;;6135252;23;1153;-70
2021/04/14 01:59:42;;;;;;;;;;;;;;;;;;6156149;23;1159;-70
2021/04/14 02:02:07;;;;;;;;;;;;;;;;;;6160903;23;877;-67
2021/04/14 02:04:34;;;;;;;;;;;;;;;;;;6134480;23;1314;-69
2021/04/14 02:06:59;;;;;;;;;;;;;;;;;;6157769;23;830;-71
2021/04/14 02:09:25;;;;;;;;;;;;;;;;;;6161538;23;849;-70
2021/04/14 02:11:50;;;;;;;;;;;;;;;;;;6158182;23;833;-67
2021/04/14 02:14:17;;;;;;;;;;;;;;;;;;6159854;23;1892;-69
2021/04/14 02:16:43;;;;;;;;;;;;;;;;;;6160883;23;818;-70
2021/04/14 02:19:09;;;;;;;;;;;;;;;;;;6131268;23;1191;-65
2021/04/14 02:21:35;;;;;;;;;;;;;;;;;;6158806;23;1174;-66
2021/04/14 02:24:00;;;;;;;;;;;;;;;;;;6159572;23;806;-67
2021/04/14 02:26:27;;;;;;;;;;;;;;;;;;6158789;23;905;-68
2021/04/14 02:28:53;;;;;;;;;;;;;;;;;;6159946;23;932;-67
2021/04/14 02:31:29;;;;;;;;;;;;;;;;;;6157946;23;904;-66
2021/04/14 02:33:59;;;;;;;;;;;;;;;;;;6153502;23;1928;-66
2021/04/14 02:36:25;;;;;;;;;;;;;;;;;;6159088;23;853;-67
2021/04/14 02:38:51;;;;;;;;;;;;;;;;;;6156186;23;550;-65
2021/04/14 02:41:16;;;;;;;;;;;;;;;;;;6157160;23;893;-65
2021/04/14 02:43:41;;;;;;;;;;;;;;;;;;6158710;23;841;-65
2021/04/14 02:46:07;;;;;;;;;;;;;;;;;;6160052;23;858;-70
2021/04/14 02:48:32;;;;;;;;;;;;;;;;;;6131467;23;1307;-71
2021/04/14 02:50:58;;;;;;;;;;;;;;;;;;6160377;23;889;-69
2021/04/14 02:53:24;;;;;;;;;;;;;;;;;;6158173;23;885;-68
2021/04/14 02:55:49;;;;;;;;;;;;;;;;;;6160513;23;1850;-70
2021/04/14 02:58:15;;;;;;;;;;;;;;;;;;6133689;23;1275;-69
2021/04/14 03:00:40;;;;;;;;;;;;;;;;;;6157935;23;815;-67
2021/04/14 03:03:05;;;;;;;;;;;;;;;;;;6158620;23;854;-70
2021/04/14 03:05:32;;;;;;;;;;;;;;;;;;6160257;23;901;-67
2021/04/14 03:07:58;;;;;;;;;;;;;;;;;;6159357;23;790;-69
2021/04/14 03:10:24;;;;;;;;;;;;;;;;;;6159604;23;1083;-70
2021/04/14 03:12:50;;;;;;;;;;;;;;;;;;6158487;23;842;-67
2021/04/14 03:15:17;;;;;;;;;;;;;;;;;;6157950;23;1873;-67
2021/04/14 03:17:43;;;;;;;;;;;;;;;;;;6160157;23;1028;-71
2021/04/14 03:20:10;;;;;;;;;;;;;;;;;;6157633;23;881;-71
2021/04/14 03:22:35;;;;;;;;;;;;;;;;;;6158339;23;1005;-68
2021/04/14 03:25:01;;;;;;;;;;;;;;;;;;6159316;23;818;-66
2021/04/14 03:27:27;;;;;;;;;;;;;;;;;;6158738;23;900;-70
2021/04/14 03:29:53;;;;;;;;;;;;;;;;;;6133341;23;1197;-68
2021/04/14 03:32:19;;;;;;;;;;;;;;;;;;6153088;23;1269;-70
2021/04/14 03:34:45;;;;;;;;;;;;;;;;;;6157325;23;1873;-67
2021/04/14 03:37:10;;;;;;;;;;;;;;;;;;6156922;23;1321;-65
2021/04/14 03:39:35;;;;;;;;;;;;;;;;;;6132516;23;1173;-69
2021/04/14 03:42:01;;;;;;;;;;;;;;;;;;6158942;23;762;-66
2021/04/14 03:44:33;;;;;;;;;;;;;;;;;;6131853;23;1379;-67
2021/04/14 03:47:00;;;;;;;;;;;;;;;;;;6158816;23;866;-70
2021/04/14 03:49:25;;;;;;;;;;;;;;;;;;6132940;23;1271;-69
2021/04/14 03:51:51;;;;;;;;;;;;;;;;;;6157646;23;1091;-67
2021/04/14 03:54:16;;;;;;;;;;;;;;;;;;6156443;23;1886;-65
2021/04/14 03:56:42;;;;;;;;;;;;;;;;;;6157733;23;767;-70
2021/04/14 03:59:10;;;;;;;;;;;;;;;;;;6157963;23;869;-67
2021/04/14 04:01:35;;;;;;;;;;;;;;;;;;6131391;23;1277;-65
2021/04/14 04:04:01;;;;;;;;;;;;;;;;;;6131879;23;1169;-68
2021/04/14 04:06:26;;;;;;;;;;;;;;;;;;6157501;23;850;-66
2021/04/14 04:08:52;;;;;;;;;;;;;;;;;;6157773;23;791;-67
2021/04/14 04:11:19;;;;;;;;;;;;;;;;;;6130817;23;1030;-66
2021/04/14 04:13:45;;;;;;;;;;;;;;;;;;6131103;23;1923;-65
2021/04/14 04:16:10;;;;;;;;;;;;;;;;;;6155389;23;1435;-65
2021/04/14 04:18:36;;;;;;;;;;;;;;;;;;6158072;23;817;-66
2021/04/14 04:21:03;;;;;;;;;;;;;;;;;;6132871;23;1172;-65
2021/04/14 04:23:28;;;;;;;;;;;;;;;;;;6132800;23;1153;-65
2021/04/14 04:25:53;;;;;;;;;;;;;;;;;;6130235;23;1233;-68
2021/04/14 04:28:19;;;;;;;;;;;;;;;;;;6157302;23;1267;-68
2021/04/14 04:30:45;;;;;;;;;;;;;;;;;;6158248;23;811;-70
2021/04/14 04:33:13;;;;;;;;;;;;;;;;;;6133007;23;1064;-68
2021/04/14 04:35:38;;;;;;;;;;;;;;;;;;6133142;23;1922;-70
2021/04/14 04:38:04;;;;;;;;;;;;;;;;;;6157935;23;838;-70
2021/04/14 04:40:30;;;;;;;;;;;;;;;;;;6158666;23;866;-70
2021/04/14 04:42:56;;;;;;;;;;;;;;;;;;6158913;23;842;-68
2021/04/14 04:45:23;;;;;;;;;;;;;;;;;;6159585;23;1004;-69
2021/04/14 04:47:49;;;;;;;;;;;;;;;;;;6132361;23;1242;-69
2021/04/14 04:50:15;;;;;;;;;;;;;;;;;;6158550;23;818;-71
2021/04/14 04:52:43;;;;;;;;;;;;;;;;;;6158694;23;821;-69
2021/04/14 04:55:09;;;;;;;;;;;;;;;;;;6159169;23;1948;-71
2021/04/14 04:57:35;;;;;;;;;;;;;;;;;;6158030;23;839;-70
2021/04/14 05:00:00;;;;;;;;;;;;;;;;;;6128250;23;1195;-69
2021/04/14 05:02:26;;;;;;;;;;;;;;;;;;6147735;23;873;-69
2021/04/14 05:04:54;;;;;;;;;;;;;;;;;;6120617;23;1333;-70
2021/04/14 05:07:20;;;;;;;;;;;;;;;;;;6146846;23;834;-66
2021/04/14 05:09:46;;;;;;;;;;;;;;;;;;6146916;23;822;-66
2021/04/14 05:12:11;;;;;;;;;;;;;;;;;;6147239;23;952;-67
2021/04/14 05:14:37;;;;;;;;;;;;;;;;;;6120701;23;1893;-69
2021/04/14 05:17:02;;;;;;;;;;;;;;;;;;6121679;23;1220;-71
2021/04/14 05:19:28;;;;;;;;;;;;;;;;;;6121645;23;1159;-67
2021/04/14 05:21:54;;;;;;;;;;;;;;;;;;6147086;23;790;-66
2021/04/14 05:24:19;;;;;;;;;;;;;;;;;;6147806;23;794;-66
2021/04/14 05:26:45;;;;;;;;;;;;;;;;;;6147171;23;1291;-66
2021/04/14 05:29:10;;;;;;;;;;;;;;;;;;6147296;23;1133;-66
2021/04/14 05:31:39;;;;;;;;;;;;;;;;;;6121543;23;1334;-67
2021/04/14 05:34:05;;;;;;;;;;;;;;;;;;6121160;23;1960;-67
2021/04/14 05:36:31;;;;;;;;;;;;;;;;;;6147556;23;870;-65
2021/04/14 05:38:56;;;;;;;;;;;;;;;;;;6146890;23;850;-68
2021/04/14 05:41:22;;;;;;;;;;;;;;;;;;6121132;23;1290;-72
2021/04/14 05:43:48;;;;;;;;;;;;;;;;;;6147104;23;874;-72
2021/04/14 05:46:15;;;;;;;;;;;;;;;;;;6120733;23;1387;-72
2021/04/14 05:48:41;;;;;;;;;;;;;;;;;;6147187;23;854;-72
2021/04/14 05:51:07;;;;;;;;;;;;;;;;;;6120563;23;1249;-72
2021/04/14 05:53:36;;;;;;;;;;;;;;;;;;6148243;23;1934;-71
2021/04/14 05:56:02;;;;;;;;;;;;;;;;;;6121975;23;1296;-70
2021/04/14 05:58:27;;;;;;;;;;;;;;;;;;6147522;23;838;-71
2021/04/14 06:00:54;;;;;;;;;;;;;;;;;;6148164;23;817;-68
2021/04/14 06:03:20;;;;;;;;;;;;;;;;;;6147988;23;799;-71
2021/04/14 06:05:45;;;;;;;;;;;;;;;;;;6147040;23;845;-64
2021/04/14 06:08:11;;;;;;;;;;;;;;;;;;6147758;23;771;-73
2021/04/14 06:10:36;;;;;;;;;;;;;;;;;;6147240;23;814;-69
2021/04/14 06:13:02;;;;;;;;;;;;;;;;;;6122403;23;1307;-68
2021/04/14 06:15:30;;;;;;;;;;;;;;;;;;6147162;23;1928;-73
2021/04/14 06:17:55;;;;;;;;;;;;;;;;;;6147000;23;1316;-72
2021/04/14 06:20:22;;;;;;;;;;;;;;;;;;6121618;23;1259;-74
2021/04/14 06:22:48;;;;;;;;;;;;;;;;;;6147740;23;1089;-73
2021/04/14 06:25:16;;;;;;;;;;;;;;;;;;6147797;23;854;-72
2021/04/14 06:27:51;;;;;;;;;;;;;;;;;;6120878;23;1214;-70
2021/04/14 06:30:18;;;;;;;;;;;;;;;;;;6147720;23;811;-72
2021/04/14 06:32:43;;;;;;;;;;;;;;;;;;6147648;23;778;-72
2021/04/14 06:35:09;;;;;;;;;;;;;;;;;;6146531;23;1897;-71
2021/04/14 06:37:35;;;;;;;;;;;;;;;;;;6147755;23;774;-69
2021/04/14 06:43:27;;;;;;;;;;;;;;;;;;6147901;23;696;-72
2021/04/14 06:45:24;;;;;;;;;;;;;;;;;;6136111;23;1359;-71
2021/04/14 06:47:59;;;;;;;;;;;;;;;;;;6147711;23;783;-71
2021/04/14 06:50:50;;;;;;;;;;;;;;;;;;6146702;23;865;-70
2021/04/14 06:53:21;;;;;;;;;;;;;;;;;;6144051;23;1141;-68
2021/04/14 06:55:50;;;;;;;;;;;;;;;;;;6146494;23;1920;-70
2021/04/14 06:58:18;;;;;;;;;;;;;;;;;;6145487;23;1232;-70
2021/04/14 07:00:53;;;;;;;;;;;;;;;;;;6146325;23;794;-70
2021/04/14 07:03:20;;;;;;;;;;;;;;;;;;6120260;23;1172;-70
2021/04/14 07:05:54;;;;;;;;;;;;;;;;;;6145444;23;920;-69
2021/04/14 07:08:24;;;;;;;;;;;;;;;;;;6146729;23;869;-70
2021/04/14 07:11:00;;;;;;;;;;;;;;;;;;6146455;23;834;-70
2021/04/14 07:13:26;;;;;;;;;;;;;;;;;;6120614;23;1223;-70
2021/04/14 07:15:54;;;;;;;;;;;;;;;;;;6146843;23;1881;-68
2021/04/14 07:18:42;;;;;;;;;;;;;;;;;;6146661;23;825;-70
2021/04/14 07:21:10;;;;;;;;;;;;;;;;;;6114070;23;1399;-69
2021/04/14 07:23:39;;;;;;;;;;;;;;;;;;6120977;23;1299;-71
2021/04/14 07:26:04;;;;;;;;;;;;;;;;;;6147083;23;853;-71
2021/04/14 07:28:47;;;;;;;;;;;;;;;;;;6146004;23;846;-70
2021/04/14 07:31:31;;;;;;;;;;;;;;;;;;6146946;23;850;-69
2021/04/14 07:34:17;;;;;;;;;;;;;;;;;;6145283;23;1911;-70
2021/04/14 07:37:01;;;;;;;;;;;;;;;;;;6120000;23;1247;-74
2021/04/14 07:39:40;;;;;;;;;;;;;;;;;;6146313;23;810;-69
2021/04/14 07:42:09;;;;;;;;;;;;;;;;;;6146316;23;1113;-67
2021/04/14 07:44:37;;;;;;;;;;;;;;;;;;6147554;23;779;-71
2021/04/14 07:47:05;;;;;;;;;;;;;;;;;;6147079;23;830;-67
2021/04/14 07:49:32;;;;;;;;;;;;;;;;;;6147331;23;822;-67
2021/04/14 07:51:58;;;;;;;;;;;;;;;;;;6120142;23;1204;-72
2021/04/14 07:54:25;;;;;;;;;;;;;;;;;;6145902;23;1890;-71
2021/04/14 07:56:53;;;;;;;;;;;;;;;;;;6146031;23;850;-70
2021/04/14 07:59:27;;;;;;;;;;;;;;;;;;6120104;23;1303;-74
2021/04/14 08:01:54;;;;;;;;;;;;;;;;;;6146599;23;826;-60
2021/04/14 08:04:31;;;;;;;;;;;;;;;;;;6146309;23;886;-61
2021/04/14 08:07:15;;;;;;;;;;;;;;;;;;6146193;23;755;-60
2021/04/14 08:09:56;;;;;;;;;;;;;;;;;;6144099;23;1435;-60
2021/04/14 08:12:26;;;;;;;;;;;;;;;;;;6145119;23;837;-60
2021/04/14 08:14:52;;;;;;;;;;;;;;;;;;6146161;23;1888;-61
2021/04/14 08:17:20;;;;;;;;;;;;;;;;;;6145886;23;811;-60
2021/04/14 08:19:47;;;;;;;;;;;;;;;;;;6145303;23;798;-60
2021/04/14 08:22:15;;;;;;;;;;;;;;;;;;6145854;23;774;-60
2021/04/14 08:24:53;;;;;;;;;;;;;;;;;;6146172;23;842;-60
2021/04/14 08:27:24;;;;;;;;;;;;;;;;;;6146453;23;799;-61
2021/04/14 08:30:02;;;;;;;;;;;;;;;;;;6119870;23;910;-61
2021/04/14 08:32:29;;;;;;;;;;;;;;;;;;6145637;23;767;-61
2021/04/14 08:34:56;;;;;;;;;;;;;;;;;;6145879;23;1873;-61
2021/04/14 08:37:23;;;;;;;;;;;;;;;;;;6146670;23;862;-60
2021/04/14 08:39:50;;;;;;;;;;;;;;;;;;6147655;23;826;-59
2021/04/14 08:42:28;;;;;;;;;;;;;;;;;;6147531;23;857;-60
2021/04/14 08:44:56;;;;;;;;;;;;;;;;;;6121403;23;846;-59
2021/04/14 08:47:22;;;;;;;;;;;;;;;;;;6147857;23;774;-59
2021/04/14 08:49:48;;;;;;;;;;;;;;;;;;6147734;23;841;-60
2021/04/14 08:52:19;;;;;;;;;;;;;;;;;;6147655;23;834;-60
2021/04/14 08:54:45;;;;;;;;;;;;;;;;;;6147885;23;1924;-60
2021/04/14 08:57:10;;;;;;;;;;;;;;;;;;6147744;23;818;-59
2021/04/14 08:59:38;;;;;;;;;;;;;;;;;;6148300;23;830;-60
2021/04/14 09:02:05;;;;;;;;;;;;;;;;;;6122916;23;830;-59
2021/04/14 09:04:32;;;;;;;;;;;;;;;;;;6147807;23;838;-59
2021/04/14 09:06:57;;;;;;;;;;;;;;;;;;6121233;23;1279;-59
2021/04/14 09:09:25;;;;;;;;;;;;;;;;;;6147791;23;822;-59
2021/04/14 09:12:01;;;;;;;;;;;;;;;;;;6147771;23;830;-59
2021/04/14 09:14:28;;;;;;;;;;;;;;;;;;6146801;23;1873;-59
2021/04/14 09:17:03;;;;;;;;;;;;;;;;;;6147093;23;850;-59
2021/04/14 09:19:37;;;;;;;;;;;;;;;;;;6121107;23;807;-59
2021/04/14 09:22:23;;;;;;;;;;;;;;;;;;6148278;23;770;-59
2021/04/14 09:24:53;;;;;;;;;;;;;;;;;;6146850;23;1143;-60
2021/04/14 09:27:31;;;;;;;;;;;;;;;;;;6147361;23;770;-60
2021/04/14 09:29:56;;;;;;;;;;;;;;;;;;6147534;23;778;-60
2021/04/14 09:32:36;;;;;;;;;;;;;;;;;;6147386;23;905;-60
2021/04/14 09:35:16;;;;;;;;;;;;;;;;;;6147931;23;1922;-59
2021/04/14 09:37:42;;;;;;;;;;;;;;;;;;6147316;23;873;-59
2021/04/14 09:40:08;;;;;;;;;;;;;;;;;;6121251;23;1259;-60
2021/04/14 09:42:41;;;;;;;;;;;;;;;;;;6122393;23;1330;-59
2021/04/14 09:45:25;;;;;;;;;;;;;;;;;;6146996;23;838;-59
2021/04/14 09:47:51;;;;;;;;;;;;;;;;;;6147276;23;838;-59
2021/04/14 09:50:19;;;;;;;;;;;;;;;;;;6147398;23;862;-59
2021/04/14 09:52:48;;;;;;;;;;;;;;;;;;6121095;23;1280;-59
2021/04/14 09:55:28;;;;;;;;;;;;;;;;;;6147304;23;1924;-59
2021/04/14 09:57:54;;;;;;;;;;;;;;;;;;6145506;23;827;-59
2021/04/14 10:00:23;;;;;;;;;;;;;;;;;;6147096;23;870;-59
2021/04/14 10:02:50;;;;;;;;;;;;;;;;;;6147311;23;830;-59
2021/04/14 10:05:16;;;;;;;;;;;;;;;;;;6120828;23;985;-59
2021/04/14 10:07:43;;;;;;;;;;;;;;;;;;6147494;23;822;-60
2021/04/14 10:10:10;;;;;;;;;;;;;;;;;;6147444;23;806;-60
2021/04/14 10:12:36;;;;;;;;;;;;;;;;;;6121747;23;1423;-60
2021/04/14 10:15:04;;;;;;;;;;;;;;;;;;6148266;23;1885;-60
2021/04/14 10:17:30;;;;;;;;;;;;;;;;;;6146899;23;834;-59
2021/04/14 10:20:06;;;;;;;;;;;;;;;;;;6146973;23;779;-59
2021/04/14 10:22:34;;;;;;;;;;;;;;;;;;6147896;23;779;-59
2021/04/14 10:25:01;;;;;;;;;;;;;;;;;;6120090;23;831;-59
2021/04/14 10:27:26;;;;;;;;;;;;;;;;;;6121494;23;1316;-61
2021/04/14 10:29:52;;;;;;;;;;;;;;;;;;6147526;23;846;-60
2021/04/14 10:32:21;;;;;;;;;;;;;;;;;;6147630;23;819;-60
2021/04/14 10:34:46;;;;;;;;;;;;;;;;;;6147113;23;1873;-60
2021/04/14 10:37:18;;;;;;;;;;;;;;;;;;6146909;23;810;-59
2021/04/14 10:39:44;;;;;;;;;;;;;;;;;;6147161;23;837;-60
2021/04/14 10:42:35;;;;;;;;;;;;;;;;;;6147012;23;783;-60
2021/04/14 10:45:04;;;;;;;;;;;;;;;;;;6145283;23;1869;-60
2021/04/14 10:47:33;;;;;;;;;;;;;;;;;;6147425;23;849;-60
2021/04/14 10:50:13;;;;;;;;;;;;;;;;;;6147542;23;930;-60
2021/04/14 10:52:41;;;;;;;;;;;;;;;;;;6147252;23;905;-60
2021/04/14 10:55:11;;;;;;;;;;;;;;;;;;6147568;23;908;-60
2021/04/14 10:57:38;;;;;;;;;;;;;;;;;;6120649;23;843;-60
2021/04/14 11:00:09;;;;;;;;;;;;;;;;;;6147476;23;838;-59
2021/04/14 11:02:36;;;;;;;;;;;;;;;;;;6148256;23;897;-60
2021/04/14 11:05:02;;;;;;;;;;;;;;;;;;6148066;23;1869;-60
2021/04/14 11:07:28;;;;;;;;;;;;;;;;;;6120567;23;831;-60
2021/04/14 11:09:56;;;;;;;;;;;;;;;;;;6147322;23;850;-59
2021/04/14 11:12:23;;;;;;;;;;;;;;;;;;6147260;23;787;-59
2021/04/14 11:14:50;;;;;;;;;;;;;;;;;;6146874;23;906;-60
2021/04/14 11:17:20;;;;;;;;;;;;;;;;;;6147153;23;901;-60
2021/04/14 11:20:00;;;;;;;;;;;;;;;;;;6146766;23;795;-60
2021/04/14 11:22:26;;;;;;;;;;;;;;;;;;6147126;23;818;-61
2021/04/14 11:24:53;;;;;;;;;;;;;;;;;;6146602;23;1893;-60
2021/04/14 11:27:23;;;;;;;;;;;;;;;;;;6147218;23;806;-60
2021/04/14 11:29:49;;;;;;;;;;;;;;;;;;6147057;23;890;-60
2021/04/14 11:32:19;;;;;;;;;;;;;;;;;;6146720;23;814;-61
2021/04/14 11:34:59;;;;;;;;;;;;;;;;;;6120432;23;1191;-60
2021/04/14 11:37:44;;;;;;;;;;;;;;;;;;6146768;23;811;-60
2021/04/14 11:40:19;;;;;;;;;;;;;;;;;;6145645;23;1141;-60
2021/04/14 11:42:44;;;;;;;;;;;;;;;;;;6146224;23;806;-60
2021/04/14 11:45:10;;;;;;;;;;;;;;;;;;6146394;23;1880;-60
2021/04/14 11:47:38;;;;;;;;;;;;;;;;;;6147595;23;823;-60
2021/04/14 11:50:12;;;;;;;;;;;;;;;;;;6147932;23;878;-59
2021/04/14 11:52:38;;;;;;;;;;;;;;;;;;6146185;23;850;-60
2021/04/14 11:55:36;;;;;;;;;;;;;;;;;;6147531;23;779;-59
2021/04/14 11:58:04;;;;;;;;;;;;;;;;;;6113613;23;1383;-60
2021/04/14 12:00:43;;;;;;;;;;;;;;;;;;6146791;23;791;-60
2021/04/14 12:03:28;;;;;;;;;;;;;;;;;;6146586;23;783;-60
2021/04/14 12:05:56;;;;;;;;;;;;;;;;;;6145539;23;1932;-59
2021/04/14 12:08:22;;;;;;;;;;;;;;;;;;6146156;23;908;-59
2021/04/14 12:10:47;;;;;;;;;;;;;;;;;;6146870;23;890;-59
2021/04/14 12:13:13;;;;;;;;;;;;;;;;;;6148430;23;779;-59
2021/04/14 12:15:39;;;;;;;;;;;;;;;;;;6148395;23;775;-59
2021/04/14 12:18:04;;;;;;;;;;;;;;;;;;6148942;23;814;-60
2021/04/14 12:20:30;;;;;;;;;;;;;;;;;;6148607;23;928;-59
2021/04/14 12:22:55;;;;;;;;;;;;;;;;;;6122871;23;1306;-59
2021/04/14 12:25:21;;;;;;;;;;;;;;;;;;6148372;23;1913;-59
2021/04/14 12:27:46;;;;;;;;;;;;;;;;;;6148476;23;790;-59
2021/04/14 12:30:12;;;;;;;;;;;;;;;;;;6122640;23;853;-60
2021/04/14 12:32:38;;;;;;;;;;;;;;;;;;6148910;23;993;-60
2021/04/14 12:35:04;;;;;;;;;;;;;;;;;;6149674;23;870;-59
2021/04/14 12:37:29;;;;;;;;;;;;;;;;;;6148072;23;791;-59
2021/04/14 12:39:55;;;;;;;;;;;;;;;;;;6148137;23;775;-59
2021/04/14 12:42:20;;;;;;;;;;;;;;;;;;6148162;23;786;-59
2021/04/14 12:44:49;;;;;;;;;;;;;;;;;;6147792;23;1905;-60
2021/04/14 12:47:15;;;;;;;;;;;;;;;;;;6121372;23;1318;-60
2021/04/14 12:49:42;;;;;;;;;;;;;;;;;;6147633;23;854;-61
2021/04/14 12:52:19;;;;;;;;;;;;;;;;;;6147786;23;791;-61
2021/04/14 12:54:44;;;;;;;;;;;;;;;;;;6148059;23;857;-59
2021/04/14 12:57:20;;;;;;;;;;;;;;;;;;6147603;23;806;-59
2021/04/14 12:59:49;;;;;;;;;;;;;;;;;;6147609;23;802;-59
2021/04/14 13:02:20;;;;;;;;;;;;;;;;;;6147442;23;795;-59
2021/04/14 13:05:01;;;;;;;;;;;;;;;;;;6147659;23;1911;-59
2021/04/14 13:07:31;;;;;;;;;;;;;;;;;;6148112;23;823;-59
2021/04/14 13:09:57;;;;;;;;;;;;;;;;;;6147894;23;834;-59
2021/04/14 13:12:33;;;;;;;;;;;;;;;;;;6147532;23;811;-59
2021/04/14 13:14:58;;;;;;;;;;;;;;;;;;6147737;23;834;-59
2021/04/14 13:17:25;;;;;;;;;;;;;;;;;;6147801;23;802;-60
2021/04/14 13:19:51;;;;;;;;;;;;;;;;;;6147865;23;834;-59
2021/04/14 13:22:23;;;;;;;;;;;;;;;;;;6147835;23;834;-60
2021/04/14 13:24:54;;;;;;;;;;;;;;;;;;6121511;23;1889;-59
2021/04/14 13:27:19;;;;;;;;;;;;;;;;;;6147685;23;901;-59
2021/04/14 13:30:03;;;;;;;;;;;;;;;;;;6147334;23;821;-60
2021/04/14 13:32:31;;;;;;;;;;;;;;;;;;6147750;23;830;-59
2021/04/14 13:35:07;;;;;;;;;;;;;;;;;;6147485;23;815;-60
2021/04/14 13:37:35;;;;;;;;;;;;;;;;;;6148674;23;858;-60
2021/04/14 13:40:17;;;;;;;;;;;;;;;;;;6121573;23;1154;-59
2021/04/14 13:42:52;;;;;;;;;;;;;;;;;;6148047;23;795;-60
2021/04/14 13:45:41;;;;;;;;;;;;;;;;;;6121754;23;1881;-59
2021/04/14 13:48:20;;;;;;;;;;;;;;;;;;6139499;23;1094;-60
2021/04/14 13:50:51;;;;;;;;;;;;;;;;;;6148199;23;906;-60
2021/04/14 13:53:19;;;;;;;;;;;;;;;;;;6148088;23;786;-61
2021/04/14 13:55:44;;;;;;;;;;;;;;;;;;6147677;23;802;-60
2021/04/14 13:58:14;;;;;;;;;;;;;;;;;;6121310;23;878;-60
2021/04/14 14:00:49;;;;;;;;;;;;;;;;;;6147722;23;913;-59
2021/04/14 14:03:15;;;;;;;;;;;;;;;;;;6148058;23;839;-60
2021/04/14 14:05:41;;;;;;;;;;;;;;;;;;6147289;23;1889;-60
2021/04/14 14:08:15;;;;;;;;;;;;;;;;;;6121623;23;1184;-61
2021/04/14 14:10:59;;;;;;;;;;;;;;;;;;6147761;23;858;-59
2021/04/14 14:13:30;;;;;;;;;;;;;;;;;;6147744;23;854;-60
2021/04/14 14:15:55;;;;;;;;;;;;;;;;;;6147425;23;866;-60
2021/04/14 14:18:21;;;;;;;;;;;;;;;;;;6147350;23;806;-60
2021/04/14 14:20:47;;;;;;;;;;;;;;;;;;6147489;23;889;-60
2021/04/14 14:23:15;;;;;;;;;;;;;;;;;;6147365;23;798;-61
2021/04/14 14:25:40;;;;;;;;;;;;;;;;;;6147427;23;1923;-60
2021/04/14 14:28:06;;;;;;;;;;;;;;;;;;6148170;23;827;-60
2021/04/14 14:30:32;;;;;;;;;;;;;;;;;;6147662;23;826;-60
2021/04/14 14:32:57;;;;;;;;;;;;;;;;;;6146877;23;786;-60
2021/04/14 14:35:24;;;;;;;;;;;;;;;;;;6146392;23;873;-61
2021/04/14 14:38:11;;;;;;;;;;;;;;;;;;6147412;23;838;-60
2021/04/14 14:40:38;;;;;;;;;;;;;;;;;;6121959;23;1322;-59
2021/04/14 14:43:14;;;;;;;;;;;;;;;;;;6148362;23;803;-59
2021/04/14 14:45:44;;;;;;;;;;;;;;;;;;6120896;23;1936;-59
2021/04/14 14:48:31;;;;;;;;;;;;;;;;;;6147194;23;806;-59
2021/04/14 14:50:59;;;;;;;;;;;;;;;;;;6146892;23;822;-59
2021/04/14 14:53:24;;;;;;;;;;;;;;;;;;6146829;23;770;-59
2021/04/14 14:55:52;;;;;;;;;;;;;;;;;;6147054;23;771;-60
2021/04/14 14:58:22;;;;;;;;;;;;;;;;;;6120145;23;1444;-60
2021/04/14 15:00:57;;;;;;;;;;;;;;;;;;6120860;23;854;-60
2021/04/14 15:03:22;;;;;;;;;;;;;;;;;;6147339;23;865;-60
2021/04/14 15:05:47;;;;;;;;;;;;;;;;;;6146588;23;1945;-58
2021/04/14 15:08:13;;;;;;;;;;;;;;;;;;6146828;23;866;-59
2021/04/14 15:10:38;;;;;;;;;;;;;;;;;;6145812;23;1605;-59
2021/04/14 15:13:04;;;;;;;;;;;;;;;;;;6121440;23;855;-59
2021/04/14 15:15:29;;;;;;;;;;;;;;;;;;6146781;23;817;-60
2021/04/14 15:17:54;;;;;;;;;;;;;;;;;;6146579;23;791;-59
2021/04/14 15:20:24;;;;;;;;;;;;;;;;;;6146108;23;782;-59
2021/04/14 15:22:50;;;;;;;;;;;;;;;;;;6146644;23;814;-59
2021/04/14 15:25:16;;;;;;;;;;;;;;;;;;6146434;23;1908;-60
2021/04/14 15:27:41;;;;;;;;;;;;;;;;;;6146532;23;771;-59
2021/04/14 15:30:07;;;;;;;;;;;;;;;;;;6147201;23;755;-61
2021/04/14 15:32:32;;;;;;;;;;;;;;;;;;6147412;23;862;-59
2021/04/14 15:34:58;;;;;;;;;;;;;;;;;;6146302;23;920;-59
2021/04/14 15:37:25;;;;;;;;;;;;;;;;;;6146889;23;798;-59
2021/04/14 15:39:50;;;;;;;;;;;;;;;;;;6146853;23;878;-59
2021/04/14 15:42:17;;;;;;;;;;;;;;;;;;6146812;23;857;-58
2021/04/14 15:44:42;;;;;;;;;;;;;;;;;;6146411;23;1876;-59
2021/04/14 15:47:08;;;;;;;;;;;;;;;;;;6145961;23;866;-61
2021/04/14 15:49:33;;;;;;;;;;;;;;;;;;6120889;23;834;-60
2021/04/14 15:51:58;;;;;;;;;;;;;;;;;;6146098;23;830;-59
2021/04/14 15:54:27;;;;;;;;;;;;;;;;;;6146563;23;847;-59
2021/04/14 15:56:54;;;;;;;;;;;;;;;;;;6146502;23;874;-60
2021/04/14 15:59:19;;;;;;;;;;;;;;;;;;6146118;23;767;-59
2021/04/14 16:01:48;;;;;;;;;;;;;;;;;;6120151;23;1102;-59
2021/04/14 16:04:14;;;;;;;;;;;;;;;;;;6145205;23;1873;-59
2021/04/14 16:06:42;;;;;;;;;;;;;;;;;;6146619;23;1375;-59
2021/04/14 16:09:08;;;;;;;;;;;;;;;;;;6145333;23;850;-59
2021/04/14 16:11:33;;;;;;;;;;;;;;;;;;6146974;23;801;-59
2021/04/14 16:13:59;;;;;;;;;;;;;;;;;;6145677;23;775;-59
2021/04/14 16:16:25;;;;;;;;;;;;;;;;;;6145050;23;822;-59
2021/04/14 16:18:50;;;;;;;;;;;;;;;;;;6145086;23;830;-59
2021/04/14 16:21:16;;;;;;;;;;;;;;;;;;6145311;23;881;-59
2021/04/14 16:23:43;;;;;;;;;;;;;;;;;;6144907;23;846;-59
2021/04/14 16:26:08;;;;;;;;;;;;;;;;;;6119226;23;1893;-59
2021/04/14 16:28:34;;;;;;;;;;;;;;;;;;6146403;23;849;-59
2021/04/14 16:31:00;;;;;;;;;;;;;;;;;;6145990;23;830;-60
2021/04/14 16:33:26;;;;;;;;;;;;;;;;;;6119366;23;1255;-59
2021/04/14 16:35:52;;;;;;;;;;;;;;;;;;6145138;23;831;-59
2021/04/14 16:38:19;;;;;;;;;;;;;;;;;;6119301;23;779;-59
2021/04/14 16:40:44;;;;;;;;;;;;;;;;;;6146066;23;858;-60
2021/04/14 16:43:09;;;;;;;;;;;;;;;;;;6145900;23;849;-59
2021/04/14 16:45:35;;;;;;;;;;;;;;;;;;6146903;23;1876;-59
2021/04/14 16:48:00;;;;;;;;;;;;;;;;;;6146449;23;842;-60
2021/04/14 16:50:26;;;;;;;;;;;;;;;;;;6119736;23;858;-59
2021/04/14 16:52:52;;;;;;;;;;;;;;;;;;6144831;23;854;-59
2021/04/14 16:55:17;;;;;;;;;;;;;;;;;;6145242;23;859;-59
2021/04/14 16:57:43;;;;;;;;;;;;;;;;;;6144941;23;918;-60
2021/04/14 17:00:10;;;;;;;;;;;;;;;;;;6147680;23;798;-60
2021/04/14 17:02:35;;;;;;;;;;;;;;;;;;6147924;23;779;-61
2021/04/14 17:05:00;;;;;;;;;;;;;;;;;;6121449;23;1912;-60
2021/04/14 17:07:26;;;;;;;;;;;;;;;;;;6147072;23;846;-60
2021/04/14 17:09:52;;;;;;;;;;;;;;;;;;6147838;23;822;-59
2021/04/14 17:12:17;;;;;;;;;;;;;;;;;;6147962;23;806;-60
2021/04/14 17:14:43;;;;;;;;;;;;;;;;;;6147972;23;878;-60
2021/04/14 17:17:09;;;;;;;;;;;;;;;;;;6147973;23;889;-59
2021/04/14 17:19:34;;;;;;;;;;;;;;;;;;6148847;23;818;-60
2021/04/14 17:22:00;;;;;;;;;;;;;;;;;;6147389;23;936;-60
2021/04/14 17:24:26;;;;;;;;;;;;;;;;;;6147543;23;1939;-60
2021/04/14 17:26:52;;;;;;;;;;;;;;;;;;6147776;23;867;-60